sensor_id;sensor_type;location;lat;lon;timestamp;pressure;altitude;pressure_sealevel;temperature;humidity
49627;BME280;35527;54.616;39.786;2023-06-04T00:02:31;99998.88;;;6.63;100.00
49627;BME280;35527;54.616;39.786;2023-06-04T00:05:35;100001.44;;;6.64;100.00
49627;BME280;35527;54.616;39.786;2023-06-04T00:08:39;100009.81;;;6.74;100.00
49627;BME280;35527;54.616;39.786;2023-06-04T00:11:42;100029.44;;;6.78;100.00
49627;BME280;35527;54.616;39.786;2023-06-04T00:14:45;100022.34;;;6.89;100.00
49627;BME280;35527;54.616;39.786;2023-06-04T00:17:50;100012.06;;;6.89;100.00
49627;BME280;35527;54.616;39.786;2023-06-04T00:20:52;100004.34;;;6.89;100.00
49627;BME280;35527;54.616;39.786;2023-06-04T00:23:55;100024.22;;;6.83;100.00
49627;BME280;35527;54.616;39.786;2023-06-04T00:26:59;100013.91;;;6.83;100.00
49627;BME280;35527;54.616;39.786;2023-06-04T00:30:04;100031.94;;;6.83;100.00
49627;BME280;35527;54.616;39.786;2023-06-04T00:33:08;100031.03;;;6.84;100.00
49627;BME280;35527;54.616;39.786;2023-06-04T00:36:12;100031.16;;;6.79;100.00
49627;BME280;35527;54.616;39.786;2023-06-04T00:39:14;100026.94;;;6.75;100.00
49627;BME280;35527;54.616;39.786;2023-06-04T00:42:20;100020.16;;;6.72;100.00
49627;BME280;35527;54.616;39.786;2023-06-04T00:45:24;100051.66;;;6.82;100.00
49627;BME280;35527;54.616;39.786;2023-06-04T00:48:29;100047.56;;;6.72;100.00
49627;BME280;35527;54.616;39.786;2023-06-04T00:51:36;100056.81;;;6.81;100.00
49627;BME280;35527;54.616;39.786;2023-06-04T00:54:39;100060.31;;;6.78;100.00
49627;BME280;35527;54.616;39.786;2023-06-04T00:57:42;100062.84;;;6.80;100.00
49627;BME280;35527;54.616;39.786;2023-06-04T01:00:45;100056.09;;;6.74;100.00
49627;BME280;35527;54.616;39.786;2023-06-04T01:03:52;100064.47;;;6.85;100.00
49627;BME280;35527;54.616;39.786;2023-06-04T01:07:00;100067.06;;;6.84;100.00
49627;BME280;35527;54.616;39.786;2023-06-04T01:10:06;100068.88;;;6.79;100.00
49627;BME280;35527;54.616;39.786;2023-06-04T01:13:10;100054.31;;;6.79;100.00
49627;BME280;35527;54.616;39.786;2023-06-04T01:16:14;100062.03;;;6.77;100.00
49627;BME280;35527;54.616;39.786;2023-06-04T01:25:58;100088.59;;;6.80;100.00
49627;BME280;35527;54.616;39.786;2023-06-04T01:29:02;100099.69;;;6.82;100.00
49627;BME280;35527;54.616;39.786;2023-06-04T01:32:05;100111.66;;;6.83;100.00
49627;BME280;35527;54.616;39.786;2023-06-04T01:35:11;100110.78;;;6.85;100.00
49627;BME280;35527;54.616;39.786;2023-06-04T01:38:14;100115.97;;;6.82;100.00
49627;BME280;35527;54.616;39.786;2023-06-04T01:41:17;100120.34;;;6.79;100.00
49627;BME280;35527;54.616;39.786;2023-06-04T01:44:22;100118.63;;;6.77;100.00
49627;BME280;35527;54.616;39.786;2023-06-04T01:47:25;100122.97;;;6.75;100.00
49627;BME280;35527;54.616;39.786;2023-06-04T01:50:28;100102.59;;;6.63;100.00
49627;BME280;35527;54.616;39.786;2023-06-04T01:53:33;100119.69;;;6.67;100.00
49627;BME280;35527;54.616;39.786;2023-06-04T01:56:37;100129.75;;;6.78;100.00
49627;BME280;35527;54.616;39.786;2023-06-04T01:59:40;100139.06;;;6.84;100.00
49627;BME280;35527;54.616;39.786;2023-06-04T02:02:46;100145.88;;;6.88;100.00
49627;BME280;35527;54.616;39.786;2023-06-04T02:05:52;100127.16;;;6.80;100.00
49627;BME280;35527;54.616;39.786;2023-06-04T02:09:00;100131.53;;;6.76;100.00
49627;BME280;35527;54.616;39.786;2023-06-04T02:12:04;100149.09;;;6.99;100.00
49627;BME280;35527;54.616;39.786;2023-06-04T02:15:13;100135.53;;;6.91;100.00
49627;BME280;35527;54.616;39.786;2023-06-04T02:18:20;100160.88;;;7.11;100.00
49627;BME280;35527;54.616;39.786;2023-06-04T02:21:29;100156.41;;;7.20;100.00
49627;BME280;35527;54.616;39.786;2023-06-04T02:24:32;100144.41;;;7.19;100.00
49627;BME280;35527;54.616;39.786;2023-06-04T02:27:37;100173.94;;;7.45;100.00
49627;BME280;35527;54.616;39.786;2023-06-04T02:30:43;100154.38;;;7.36;100.00
49627;BME280;35527;54.616;39.786;2023-06-04T02:33:48;100178.81;;;7.57;100.00
49627;BME280;35527;54.616;39.786;2023-06-04T02:36:53;100161.06;;;7.45;100.00
49627;BME280;35527;54.616;39.786;2023-06-04T02:39:57;100194.06;;;7.68;100.00
49627;BME280;35527;54.616;39.786;2023-06-04T02:43:00;100175.97;;;7.71;100.00
49627;BME280;35527;54.616;39.786;2023-06-04T02:46:05;100169.00;;;7.76;100.00
49627;BME280;35527;54.616;39.786;2023-06-04T02:49:10;100177.47;;;7.81;100.00
49627;BME280;35527;54.616;39.786;2023-06-04T02:52:18;100200.38;;;7.94;100.00
49627;BME280;35527;54.616;39.786;2023-06-04T02:55:20;100203.47;;;8.09;100.00
49627;BME280;35527;54.616;39.786;2023-06-04T02:58:26;100214.50;;;8.16;100.00
49627;BME280;35527;54.616;39.786;2023-06-04T03:01:31;100229.91;;;8.18;100.00
49627;BME280;35527;54.616;39.786;2023-06-04T03:04:35;100225.50;;;8.23;100.00
49627;BME280;35527;54.616;39.786;2023-06-04T03:07:41;100233.72;;;8.42;100.00
49627;BME280;35527;54.616;39.786;2023-06-04T03:10:47;100217.47;;;8.35;100.00
49627;BME280;35527;54.616;39.786;2023-06-04T03:13:52;100238.47;;;8.59;100.00
49627;BME280;35527;54.616;39.786;2023-06-04T03:16:56;100216.97;;;8.58;99.53
49627;BME280;35527;54.616;39.786;2023-06-04T03:19:59;100249.84;;;8.86;97.71
49627;BME280;35527;54.616;39.786;2023-06-04T03:23:07;100253.06;;;8.94;97.39
49627;BME280;35527;54.616;39.786;2023-06-04T03:26:10;100242.09;;;8.86;96.68
49627;BME280;35527;54.616;39.786;2023-06-04T03:29:15;100252.44;;;9.18;95.75
49627;BME280;35527;54.616;39.786;2023-06-04T03:32:19;100251.03;;;9.39;93.88
49627;BME280;35527;54.616;39.786;2023-06-04T03:35:24;100247.75;;;9.64;91.16
49627;BME280;35527;54.616;39.786;2023-06-04T03:38:27;100247.41;;;10.06;88.87
49627;BME280;35527;54.616;39.786;2023-06-04T03:41:32;100264.34;;;11.49;80.62
49627;BME280;35527;54.616;39.786;2023-06-04T03:44:36;100255.47;;;13.90;64.03
49627;BME280;35527;54.616;39.786;2023-06-04T03:47:42;100264.84;;;15.71;53.18
49627;BME280;35527;54.616;39.786;2023-06-04T03:50:49;100267.88;;;16.59;49.64
49627;BME280;35527;54.616;39.786;2023-06-04T03:53:55;100274.88;;;16.74;48.25
49627;BME280;35527;54.616;39.786;2023-06-04T03:57:02;100264.59;;;17.60;45.22
49627;BME280;35527;54.616;39.786;2023-06-04T04:00:07;100272.81;;;18.38;43.71
49627;BME280;35527;54.616;39.786;2023-06-04T04:03:14;100265.59;;;18.69;42.44
49627;BME280;35527;54.616;39.786;2023-06-04T04:06:18;100265.59;;;19.73;40.84
49627;BME280;35527;54.616;39.786;2023-06-04T04:09:23;100270.63;;;19.89;38.82
49627;BME280;35527;54.616;39.786;2023-06-04T04:12:26;100266.22;;;19.51;39.74
49627;BME280;35527;54.616;39.786;2023-06-04T04:15:29;100274.06;;;20.63;37.92
49627;BME280;35527;54.616;39.786;2023-06-04T04:18:34;100284.06;;;20.34;38.06
49627;BME280;35527;54.616;39.786;2023-06-04T04:21:40;100275.41;;;20.68;37.25
49627;BME280;35527;54.616;39.786;2023-06-04T04:24:43;100301.28;;;21.68;35.45
49627;BME280;35527;54.616;39.786;2023-06-04T04:27:49;100295.06;;;21.46;35.79
49627;BME280;35527;54.616;39.786;2023-06-04T04:30:53;100293.34;;;21.45;35.76
49627;BME280;35527;54.616;39.786;2023-06-04T04:33:59;100291.47;;;22.03;33.74
49627;BME280;35527;54.616;39.786;2023-06-04T04:37:11;100296.22;;;22.43;32.28
49627;BME280;35527;54.616;39.786;2023-06-04T04:40:14;100283.88;;;22.33;32.97
49627;BME280;35527;54.616;39.786;2023-06-04T04:43:31;100293.25;;;21.58;33.68
49627;BME280;35527;54.616;39.786;2023-06-04T04:46:51;100287.78;;;22.49;32.48
49627;BME280;35527;54.616;39.786;2023-06-04T04:49:54;100283.53;;;22.90;31.07
49627;BME280;35527;54.616;39.786;2023-06-04T04:53:00;100299.31;;;22.37;31.18
49627;BME280;35527;54.616;39.786;2023-06-04T04:56:08;100301.38;;;22.34;30.41
49627;BME280;35527;54.616;39.786;2023-06-04T04:59:17;100304.97;;;22.33;31.40
49627;BME280;35527;54.616;39.786;2023-06-04T05:02:21;100311.09;;;21.99;32.20
49627;BME280;35527;54.616;39.786;2023-06-04T05:05:33;100310.09;;;22.34;31.35
49627;BME280;35527;54.616;39.786;2023-06-04T05:08:46;100312.44;;;22.60;30.46
49627;BME280;35527;54.616;39.786;2023-06-04T05:11:57;100305.09;;;22.63;30.99
49627;BME280;35527;54.616;39.786;2023-06-04T05:15:09;100287.38;;;23.19;29.16
49627;BME280;35527;54.616;39.786;2023-06-04T05:18:30;100307.28;;;23.44;29.08
49627;BME280;35527;54.616;39.786;2023-06-04T05:21:38;100291.31;;;23.76;28.14
49627;BME280;35527;54.616;39.786;2023-06-04T05:24:46;100311.50;;;23.77;27.67
49627;BME280;35527;54.616;39.786;2023-06-04T05:27:50;100320.22;;;23.98;27.43
49627;BME280;35527;54.616;39.786;2023-06-04T05:30:56;100315.72;;;23.16;28.15
49627;BME280;35527;54.616;39.786;2023-06-04T05:34:06;100313.38;;;23.02;29.06
49627;BME280;35527;54.616;39.786;2023-06-04T05:37:19;100310.88;;;23.43;26.94
49627;BME280;35527;54.616;39.786;2023-06-04T05:40:24;100316.53;;;22.64;28.39
49627;BME280;35527;54.616;39.786;2023-06-04T05:43:26;100318.94;;;23.20;28.55
49627;BME280;35527;54.616;39.786;2023-06-04T05:46:32;100316.94;;;24.16;27.17
49627;BME280;35527;54.616;39.786;2023-06-04T05:49:38;100317.88;;;24.65;26.12
49627;BME280;35527;54.616;39.786;2023-06-04T05:52:42;100322.59;;;24.11;26.47
49627;BME280;35527;54.616;39.786;2023-06-04T05:55:48;100321.38;;;25.04;24.52
49627;BME280;35527;54.616;39.786;2023-06-04T05:58:53;100334.16;;;25.38;24.65
49627;BME280;35527;54.616;39.786;2023-06-04T06:01:59;100320.13;;;24.99;24.82
49627;BME280;35527;54.616;39.786;2023-06-04T06:05:05;100329.28;;;25.24;23.56
49627;BME280;35527;54.616;39.786;2023-06-04T06:08:10;100296.72;;;25.60;22.83
49627;BME280;35527;54.616;39.786;2023-06-04T06:11:19;100324.22;;;25.59;22.86
49627;BME280;35527;54.616;39.786;2023-06-04T06:14:25;100310.06;;;24.83;23.55
49627;BME280;35527;54.616;39.786;2023-06-04T06:17:32;100319.75;;;24.24;24.59
49627;BME280;35527;54.616;39.786;2023-06-04T06:20:35;100327.47;;;24.56;24.34
49627;BME280;35527;54.616;39.786;2023-06-04T06:23:38;100336.41;;;25.23;23.59
49627;BME280;35527;54.616;39.786;2023-06-04T06:26:43;100334.59;;;24.56;24.60
49627;BME280;35527;54.616;39.786;2023-06-04T06:29:47;100355.47;;;23.15;26.99
49627;BME280;35527;54.616;39.786;2023-06-04T06:32:50;100341.75;;;21.31;29.00
49627;BME280;35527;54.616;39.786;2023-06-04T06:35:58;100341.66;;;19.87;30.28
49627;BME280;35527;54.616;39.786;2023-06-04T06:39:05;100346.56;;;19.41;30.96
49627;BME280;35527;54.616;39.786;2023-06-04T06:42:08;100332.47;;;18.20;32.85
49627;BME280;35527;54.616;39.786;2023-06-04T06:45:15;100352.00;;;20.27;31.42
49627;BME280;35527;54.616;39.786;2023-06-04T06:48:19;100339.81;;;22.47;28.10
49627;BME280;35527;54.616;39.786;2023-06-04T06:51:25;100366.94;;;22.49;28.51
49627;BME280;35527;54.616;39.786;2023-06-04T06:54:30;100363.47;;;21.93;29.33
49627;BME280;35527;54.616;39.786;2023-06-04T06:57:35;100360.22;;;20.72;31.31
49627;BME280;35527;54.616;39.786;2023-06-04T07:00:43;100339.44;;;19.55;32.62
49627;BME280;35527;54.616;39.786;2023-06-04T07:03:46;100361.25;;;17.77;35.32
49627;BME280;35527;54.616;39.786;2023-06-04T07:06:49;100363.38;;;17.56;34.74
49627;BME280;35527;54.616;39.786;2023-06-04T07:09:52;100365.69;;;19.03;32.90
49627;BME280;35527;54.616;39.786;2023-06-04T07:12:57;100355.81;;;22.23;27.46
49627;BME280;35527;54.616;39.786;2023-06-04T07:16:00;100359.50;;;21.98;27.61
49627;BME280;35527;54.616;39.786;2023-06-04T07:19:04;100360.16;;;19.98;30.80
49627;BME280;35527;54.616;39.786;2023-06-04T07:22:06;100349.59;;;19.47;32.88
49627;BME280;35527;54.616;39.786;2023-06-04T07:25:12;100362.13;;;20.20;31.95
49627;BME280;35527;54.616;39.786;2023-06-04T07:28:15;100357.59;;;19.58;32.86
49627;BME280;35527;54.616;39.786;2023-06-04T07:31:18;100364.03;;;19.54;32.71
49627;BME280;35527;54.616;39.786;2023-06-04T07:34:22;100354.25;;;20.08;31.31
49627;BME280;35527;54.616;39.786;2023-06-04T07:37:28;100358.19;;;21.81;29.33
49627;BME280;35527;54.616;39.786;2023-06-04T07:40:32;100370.75;;;23.00;27.55
49627;BME280;35527;54.616;39.786;2023-06-04T07:43:34;100357.66;;;20.34;30.63
49627;BME280;35527;54.616;39.786;2023-06-04T07:46:39;100357.59;;;19.58;31.91
49627;BME280;35527;54.616;39.786;2023-06-04T07:49:48;100369.78;;;21.79;28.98
49627;BME280;35527;54.616;39.786;2023-06-04T07:52:59;100362.50;;;23.47;26.82
49627;BME280;35527;54.616;39.786;2023-06-04T07:56:03;100342.25;;;23.78;26.75
49627;BME280;35527;54.616;39.786;2023-06-04T07:59:06;100373.97;;;21.59;28.53
49627;BME280;35527;54.616;39.786;2023-06-04T08:02:10;100348.81;;;19.85;31.32
49627;BME280;35527;54.616;39.786;2023-06-04T08:05:16;100355.38;;;20.66;30.50
49627;BME280;35527;54.616;39.786;2023-06-04T08:08:19;100367.72;;;22.73;28.50
49627;BME280;35527;54.616;39.786;2023-06-04T08:11:21;100372.78;;;23.92;27.31
49627;BME280;35527;54.616;39.786;2023-06-04T08:14:30;100369.75;;;23.96;26.15
49627;BME280;35527;54.616;39.786;2023-06-04T08:17:34;100371.19;;;23.37;26.60
49627;BME280;35527;54.616;39.786;2023-06-04T08:20:50;100371.25;;;23.47;26.80
49627;BME280;35527;54.616;39.786;2023-06-04T08:24:11;100359.50;;;23.40;25.98
49627;BME280;35527;54.616;39.786;2023-06-04T08:27:36;100339.56;;;23.99;26.41
49627;BME280;35527;54.616;39.786;2023-06-04T08:30:51;100376.75;;;24.07;24.55
49627;BME280;35527;54.616;39.786;2023-06-04T08:34:09;100365.91;;;24.10;25.08
49627;BME280;35527;54.616;39.786;2023-06-04T08:37:15;100345.94;;;23.45;26.57
49627;BME280;35527;54.616;39.786;2023-06-04T08:40:20;100378.38;;;22.71;27.05
49627;BME280;35527;54.616;39.786;2023-06-04T08:43:24;100359.84;;;20.40;28.71
49627;BME280;35527;54.616;39.786;2023-06-04T08:46:31;100370.19;;;21.04;28.83
49627;BME280;35527;54.616;39.786;2023-06-04T08:49:36;100372.69;;;22.10;27.18
49627;BME280;35527;54.616;39.786;2023-06-04T08:52:39;100370.56;;;21.46;28.69
49627;BME280;35527;54.616;39.786;2023-06-04T08:55:43;100365.13;;;20.77;29.78
49627;BME280;35527;54.616;39.786;2023-06-04T08:58:46;100350.59;;;20.84;30.06
49627;BME280;35527;54.616;39.786;2023-06-04T09:01:53;100356.91;;;19.69;31.47
49627;BME280;35527;54.616;39.786;2023-06-04T09:04:57;100356.41;;;19.24;32.24
49627;BME280;35527;54.616;39.786;2023-06-04T09:08:08;100371.38;;;18.82;32.16
49627;BME280;35527;54.616;39.786;2023-06-04T09:11:14;100352.53;;;18.90;32.56
49627;BME280;35527;54.616;39.786;2023-06-04T09:14:20;100367.50;;;19.15;32.26
49627;BME280;35527;54.616;39.786;2023-06-04T09:17:24;100370.59;;;18.53;32.90
49627;BME280;35527;54.616;39.786;2023-06-04T09:20:28;100376.91;;;18.08;35.04
49627;BME280;35527;54.616;39.786;2023-06-04T09:23:34;100374.75;;;17.41;34.87
49627;BME280;35527;54.616;39.786;2023-06-04T09:26:38;100367.13;;;17.67;34.28
49627;BME280;35527;54.616;39.786;2023-06-04T09:29:58;100342.44;;;19.24;31.27
49627;BME280;35527;54.616;39.786;2023-06-04T09:33:09;100365.53;;;20.83;29.38
49627;BME280;35527;54.616;39.786;2023-06-04T09:36:16;100355.81;;;21.32;28.62
49627;BME280;35527;54.616;39.786;2023-06-04T09:39:22;100345.09;;;20.87;29.94
49627;BME280;35527;54.616;39.786;2023-06-04T09:42:28;100339.00;;;20.13;31.79
49627;BME280;35527;54.616;39.786;2023-06-04T09:45:34;100369.78;;;19.47;31.30
49627;BME280;35527;54.616;39.786;2023-06-04T09:48:38;100378.75;;;19.95;31.15
49627;BME280;35527;54.616;39.786;2023-06-04T09:51:47;100370.56;;;19.74;32.44
49627;BME280;35527;54.616;39.786;2023-06-04T09:54:51;100378.00;;;19.68;32.45
49627;BME280;35527;54.616;39.786;2023-06-04T09:57:59;100368.84;;;20.24;32.43
49627;BME280;35527;54.616;39.786;2023-06-04T10:01:04;100342.94;;;20.31;31.03
49627;BME280;35527;54.616;39.786;2023-06-04T10:04:09;100378.63;;;20.72;30.38
49627;BME280;35527;54.616;39.786;2023-06-04T10:07:14;100384.88;;;20.82;29.73
49627;BME280;35527;54.616;39.786;2023-06-04T10:10:24;100369.22;;;20.81;29.22
49627;BME280;35527;54.616;39.786;2023-06-04T10:13:31;100393.03;;;20.17;31.41
49627;BME280;35527;54.616;39.786;2023-06-04T10:16:40;100369.38;;;19.66;31.48
49627;BME280;35527;54.616;39.786;2023-06-04T10:19:49;100365.28;;;19.49;31.60
49627;BME280;35527;54.616;39.786;2023-06-04T10:22:55;100370.88;;;19.95;30.78
49627;BME280;35527;54.616;39.786;2023-06-04T10:25:58;100365.28;;;20.62;29.81
49627;BME280;35527;54.616;39.786;2023-06-04T10:29:06;100345.84;;;20.52;28.79
49627;BME280;35527;54.616;39.786;2023-06-04T10:32:10;100367.09;;;19.74;30.32
49627;BME280;35527;54.616;39.786;2023-06-04T10:35:14;100354.66;;;18.56;31.33
49627;BME280;35527;54.616;39.786;2023-06-04T10:38:22;100361.69;;;18.14;32.07
49627;BME280;35527;54.616;39.786;2023-06-04T10:41:26;100381.34;;;19.04;31.15
49627;BME280;35527;54.616;39.786;2023-06-04T10:44:46;100353.69;;;19.26;31.24
49627;BME280;35527;54.616;39.786;2023-06-04T10:48:00;100346.56;;;19.53;30.79
49627;BME280;35527;54.616;39.786;2023-06-04T10:51:05;100364.22;;;19.64;29.82
49627;BME280;35527;54.616;39.786;2023-06-04T10:54:10;100365.69;;;19.03;29.62
49627;BME280;35527;54.616;39.786;2023-06-04T10:57:16;100380.63;;;18.88;31.51
49627;BME280;35527;54.616;39.786;2023-06-04T11:00:33;100370.91;;;19.30;30.55
49627;BME280;35527;54.616;39.786;2023-06-04T11:03:38;100358.22;;;19.62;30.74
49627;BME280;35527;54.616;39.786;2023-06-04T11:06:42;100343.66;;;19.96;28.30
49627;BME280;35527;54.616;39.786;2023-06-04T11:09:49;100370.00;;;20.08;28.29
49627;BME280;35527;54.616;39.786;2023-06-04T11:12:52;100346.69;;;20.40;26.81
49627;BME280;35527;54.616;39.786;2023-06-04T11:15:55;100352.19;;;19.74;27.70
49627;BME280;35527;54.616;39.786;2023-06-04T11:19:00;100367.56;;;19.41;28.94
49627;BME280;35527;54.616;39.786;2023-06-04T11:22:04;100348.81;;;19.20;29.30
49627;BME280;35527;54.616;39.786;2023-06-04T11:25:09;100350.75;;;18.90;29.86
49627;BME280;35527;54.616;39.786;2023-06-04T11:28:16;100348.53;;;18.70;29.96
49627;BME280;35527;54.616;39.786;2023-06-04T11:31:26;100357.09;;;19.13;30.86
49627;BME280;35527;54.616;39.786;2023-06-04T11:34:30;100359.06;;;19.63;29.72
49627;BME280;35527;54.616;39.786;2023-06-04T11:37:34;100359.31;;;19.85;29.47
49627;BME280;35527;54.616;39.786;2023-06-04T11:40:38;100357.66;;;19.31;29.35
49627;BME280;35527;54.616;39.786;2023-06-04T11:43:47;100372.94;;;18.58;30.03
49627;BME280;35527;54.616;39.786;2023-06-04T11:46:50;100351.25;;;18.27;30.32
49627;BME280;35527;54.616;39.786;2023-06-04T11:49:56;100367.00;;;18.68;29.16
49627;BME280;35527;54.616;39.786;2023-06-04T11:52:59;100307.31;;;18.45;30.82
49627;BME280;35527;54.616;39.786;2023-06-04T11:56:04;100339.66;;;19.00;29.88
49627;BME280;35527;54.616;39.786;2023-06-04T11:59:07;100355.03;;;19.31;28.59
49627;BME280;35527;54.616;39.786;2023-06-04T12:02:13;100362.53;;;19.50;28.24
49627;BME280;35527;54.616;39.786;2023-06-04T12:05:17;100372.22;;;19.10;29.72
49627;BME280;35527;54.616;39.786;2023-06-04T12:08:26;100345.91;;;18.43;29.68
49627;BME280;35527;54.616;39.786;2023-06-04T12:11:34;100370.22;;;18.45;31.08
49627;BME280;35527;54.616;39.786;2023-06-04T12:14:36;100377.84;;;18.07;31.92
49627;BME280;35527;54.616;39.786;2023-06-04T12:17:51;100355.56;;;18.14;31.48
49627;BME280;35527;54.616;39.786;2023-06-04T12:20:54;100376.88;;;18.36;31.36
49627;BME280;35527;54.616;39.786;2023-06-04T12:24:11;100351.53;;;18.37;30.96
49627;BME280;35527;54.616;39.786;2023-06-04T12:27:15;100361.72;;;18.41;30.84
49627;BME280;35527;54.616;39.786;2023-06-04T12:30:21;100360.63;;;18.02;31.92
49627;BME280;35527;54.616;39.786;2023-06-04T12:33:27;100369.00;;;17.65;31.57
49627;BME280;35527;54.616;39.786;2023-06-04T12:36:34;100379.25;;;17.98;31.38
49627;BME280;35527;54.616;39.786;2023-06-04T12:39:38;100374.81;;;18.56;31.93
49627;BME280;35527;54.616;39.786;2023-06-04T12:42:40;100373.72;;;18.73;31.27
49627;BME280;35527;54.616;39.786;2023-06-04T12:45:46;100393.91;;;18.58;30.90
49627;BME280;35527;54.616;39.786;2023-06-04T12:48:50;100352.88;;;18.57;30.43
49627;BME280;35527;54.616;39.786;2023-06-04T12:51:56;100372.25;;;18.68;31.77
49627;BME280;35527;54.616;39.786;2023-06-04T12:55:00;100359.69;;;18.74;31.27
49627;BME280;35527;54.616;39.786;2023-06-04T12:58:06;100359.13;;;18.27;32.06
49627;BME280;35527;54.616;39.786;2023-06-04T13:01:09;100382.91;;;18.24;31.97
49627;BME280;35527;54.616;39.786;2023-06-04T13:04:13;100369.41;;;18.30;32.63
49627;BME280;35527;54.616;39.786;2023-06-04T13:07:17;100376.66;;;18.54;32.39
49627;BME280;35527;54.616;39.786;2023-06-04T13:10:23;100367.66;;;18.72;31.81
49627;BME280;35527;54.616;39.786;2023-06-04T13:13:27;100371.19;;;18.71;31.12
49627;BME280;35527;54.616;39.786;2023-06-04T13:16:29;100379.06;;;18.30;30.86
49627;BME280;35527;54.616;39.786;2023-06-04T13:19:35;100370.19;;;17.89;31.18
49627;BME280;35527;54.616;39.786;2023-06-04T13:22:39;100345.13;;;17.41;32.10
49627;BME280;35527;54.616;39.786;2023-06-04T13:25:44;100347.56;;;17.44;32.26
49627;BME280;35527;54.616;39.786;2023-06-04T13:28:49;100365.78;;;17.45;32.63
49627;BME280;35527;54.616;39.786;2023-06-04T13:31:53;100370.81;;;17.34;33.33
49627;BME280;35527;54.616;39.786;2023-06-04T13:35:00;100378.22;;;17.42;33.58
49627;BME280;35527;54.616;39.786;2023-06-04T13:38:05;100361.56;;;17.28;32.93
49627;BME280;35527;54.616;39.786;2023-06-04T13:41:11;100373.59;;;17.31;32.47
49627;BME280;35527;54.616;39.786;2023-06-04T13:44:15;100363.97;;;17.01;33.37
49627;BME280;35527;54.616;39.786;2023-06-04T13:47:20;100362.06;;;17.19;32.79
49627;BME280;35527;54.616;39.786;2023-06-04T13:50:24;100368.28;;;17.32;32.74
49627;BME280;35527;54.616;39.786;2023-06-04T13:53:28;100377.34;;;17.11;33.81
49627;BME280;35527;54.616;39.786;2023-06-04T13:56:30;100388.28;;;16.87;34.46
49627;BME280;35527;54.616;39.786;2023-06-04T13:59:34;100356.31;;;16.66;34.60
49627;BME280;35527;54.616;39.786;2023-06-04T14:02:36;100376.13;;;16.55;35.65
49627;BME280;35527;54.616;39.786;2023-06-04T14:05:40;100355.28;;;16.53;36.44
49627;BME280;35527;54.616;39.786;2023-06-04T14:08:44;100391.28;;;16.48;35.69
49627;BME280;35527;54.616;39.786;2023-06-04T14:11:50;100403.41;;;16.33;35.63
49627;BME280;35527;54.616;39.786;2023-06-04T14:14:54;100392.03;;;16.50;35.11
49627;BME280;35527;54.616;39.786;2023-06-04T14:17:57;100370.31;;;16.65;35.36
49627;BME280;35527;54.616;39.786;2023-06-04T14:21:02;100385.47;;;16.59;37.03
49627;BME280;35527;54.616;39.786;2023-06-04T14:24:07;100401.06;;;16.29;38.12
49627;BME280;35527;54.616;39.786;2023-06-04T14:27:11;100398.09;;;16.51;37.67
49627;BME280;35527;54.616;39.786;2023-06-04T14:30:16;100374.94;;;16.44;37.82
49627;BME280;35527;54.616;39.786;2023-06-04T14:33:19;100387.31;;;16.41;37.70
49627;BME280;35527;54.616;39.786;2023-06-04T14:36:23;100398.97;;;16.51;38.22
49627;BME280;35527;54.616;39.786;2023-06-04T14:39:27;100397.84;;;16.39;38.04
49627;BME280;35527;54.616;39.786;2023-06-04T14:42:30;100383.09;;;16.38;37.59
49627;BME280;35527;54.616;39.786;2023-06-04T14:45:34;100386.56;;;16.39;36.38
49627;BME280;35527;54.616;39.786;2023-06-04T14:48:37;100396.00;;;16.41;36.41
49627;BME280;35527;54.616;39.786;2023-06-04T14:51:40;100396.41;;;16.18;37.06
49627;BME280;35527;54.616;39.786;2023-06-04T14:54:44;100386.00;;;16.16;36.90
49627;BME280;35527;54.616;39.786;2023-06-04T14:57:49;100378.94;;;16.18;37.29
49627;BME280;35527;54.616;39.786;2023-06-04T15:00:53;100380.25;;;15.94;37.19
49627;BME280;35527;54.616;39.786;2023-06-04T15:04:02;100396.47;;;15.83;37.55
49627;BME280;35527;54.616;39.786;2023-06-04T15:07:06;100353.44;;;15.40;37.39
49627;BME280;35527;54.616;39.786;2023-06-04T15:10:10;100387.03;;;15.63;38.07
49627;BME280;35527;54.616;39.786;2023-06-04T15:13:13;100399.44;;;15.93;37.35
49627;BME280;35527;54.616;39.786;2023-06-04T15:16:19;100370.38;;;15.66;37.32
49627;BME280;35527;54.616;39.786;2023-06-04T15:19:24;100393.38;;;15.58;38.55
49627;BME280;35527;54.616;39.786;2023-06-04T15:22:27;100388.16;;;15.58;38.51
49627;BME280;35527;54.616;39.786;2023-06-04T15:25:30;100387.41;;;15.73;39.14
49627;BME280;35527;54.616;39.786;2023-06-04T15:28:35;100397.47;;;15.81;38.09
49627;BME280;35527;54.616;39.786;2023-06-04T15:31:43;100353.50;;;15.38;38.40
49627;BME280;35527;54.616;39.786;2023-06-04T15:34:46;100397.84;;;15.38;39.71
49627;BME280;35527;54.616;39.786;2023-06-04T15:37:52;100385.94;;;15.15;39.77
49627;BME280;35527;54.616;39.786;2023-06-04T15:40:56;100390.16;;;15.18;39.77
49627;BME280;35527;54.616;39.786;2023-06-04T15:43:59;100365.91;;;15.16;39.19
49627;BME280;35527;54.616;39.786;2023-06-04T15:47:04;100387.03;;;15.28;39.26
49627;BME280;35527;54.616;39.786;2023-06-04T15:50:09;100384.56;;;15.43;39.63
49627;BME280;35527;54.616;39.786;2023-06-04T15:53:12;100377.81;;;15.39;39.58
49627;BME280;35527;54.616;39.786;2023-06-04T15:56:15;100393.53;;;15.20;38.85
49627;BME280;35527;54.616;39.786;2023-06-04T15:59:19;100372.41;;;15.07;38.51
49627;BME280;35527;54.616;39.786;2023-06-04T16:02:21;100376.34;;;15.16;39.00
49627;BME280;35527;54.616;39.786;2023-06-04T16:05:24;100387.38;;;15.21;38.89